createdAt,value
2023-04-17T00:01:27.126Z,102347.75
2023-04-17T00:03:54.665Z,102329.81
2023-04-17T00:06:21.406Z,102304.47
2023-04-17T00:08:48.021Z,102329.63
2023-04-17T00:11:15.023Z,102356.81
2023-04-17T00:13:43.863Z,102335.25
2023-04-17T00:16:12.609Z,102341.66
2023-04-17T00:18:40.312Z,102337.91
2023-04-17T00:21:06.975Z,102353.38
2023-04-17T00:23:34.819Z,102312.72
2023-04-17T00:26:01.490Z,102320.09
2023-04-17T00:28:29.199Z,102348.22
2023-04-17T00:30:58.170Z,102334.53
2023-04-17T00:33:25.348Z,102281.94
2023-04-17T00:35:52.168Z,102328.06
2023-04-17T00:38:18.815Z,102354.09
2023-04-17T00:40:46.145Z,102332.41
2023-04-17T00:43:12.730Z,102336.22
2023-04-17T00:45:39.431Z,102319.72
2023-04-17T00:48:07.574Z,102271.78
2023-04-17T00:50:35.374Z,102332.41
2023-04-17T00:53:02.409Z,102328.66
2023-04-17T00:55:31.321Z,102302.53
2023-04-17T00:57:59.432Z,102314.28
2023-04-17T01:00:26.263Z,102315.84
2023-04-17T01:02:53.381Z,102305.19
2023-04-17T01:05:20.436Z,102311.56
2023-04-17T01:07:47.096Z,102310.22
2023-04-17T01:10:13.745Z,102322.97
2023-04-17T01:12:41.375Z,102333.06
2023-04-17T01:15:08.249Z,102327.25
2023-04-17T01:17:36.107Z,102296.69
2023-04-17T01:20:07.339Z,102311.84
2023-04-17T01:22:34.046Z,102296.50
2023-04-17T01:25:00.900Z,102239.31
2023-04-17T01:27:35.127Z,102321.72
2023-04-17T01:30:02.200Z,102310.03
2023-04-17T01:32:31.881Z,102317.16
2023-04-17T01:34:58.948Z,102307.97
2023-04-17T01:37:25.786Z,102280.16
2023-04-17T01:39:52.437Z,102310.56
2023-04-17T01:42:19.105Z,102304.22
2023-04-17T01:44:45.870Z,102314.06
2023-04-17T01:47:14.514Z,102312.13
2023-04-17T01:49:41.190Z,102314.56
2023-04-17T01:52:07.780Z,102319.16
2023-04-17T01:54:34.443Z,102335.53
2023-04-17T01:57:01.279Z,102329.13
2023-04-17T01:59:28.222Z,102325.50
2023-04-17T02:01:55.472Z,102308.25
2023-04-17T02:04:22.182Z,102313.41
2023-04-17T02:06:48.915Z,102241.13
2023-04-17T02:09:16.692Z,102336.19
2023-04-17T02:11:43.394Z,102328.81
2023-04-17T02:14:11.207Z,102327.84
2023-04-17T02:16:39.977Z,102307.91
2023-04-17T02:19:06.575Z,102320.34
2023-04-17T02:21:33.147Z,102353.78
2023-04-17T02:23:59.709Z,102344.59
2023-04-17T02:26:28.149Z,102316.47
2023-04-17T02:28:54.987Z,102323.84
2023-04-17T02:31:22.026Z,102332.03
2023-04-17T02:33:48.753Z,102323.00
2023-04-17T02:36:16.216Z,102320.94
2023-04-17T02:38:44.357Z,102333.59
2023-04-17T02:41:12.904Z,102322.03
2023-04-17T02:43:40.285Z,102240.63
2023-04-17T02:46:07.002Z,102319.38
2023-04-17T02:48:33.609Z,102322.03
2023-04-17T02:51:00.231Z,102313.94
2023-04-17T02:53:27.497Z,102333.84
2023-04-17T02:55:54.160Z,102319.38
2023-04-17T02:58:23.376Z,102332.81
2023-04-17T03:00:50.050Z,102334.50
2023-04-17T03:03:18.561Z,102324.28
2023-04-17T03:05:45.374Z,102352.28
2023-04-17T03:08:12.078Z,102369.56
2023-04-17T03:10:45.218Z,102365.16
2023-04-17T03:13:11.954Z,102352.47
2023-04-17T03:15:38.633Z,102343.56
2023-04-17T03:18:05.454Z,102371.38
2023-04-17T03:20:32.304Z,102355.06
2023-04-17T03:22:59.059Z,102357.66
2023-04-17T03:25:25.850Z,102373.72
2023-04-17T03:27:53.050Z,102277.06
2023-04-17T03:30:23.163Z,102270.81
2023-04-17T03:32:51.900Z,102345.88
2023-04-17T03:35:18.613Z,102357.22
2023-04-17T03:37:45.285Z,102276.09
2023-04-17T03:40:13.145Z,102334.91
2023-04-17T03:42:39.846Z,102360.13
2023-04-17T03:45:07.183Z,102372.81
2023-04-17T03:47:33.874Z,102347.44
2023-04-17T03:50:00.818Z,102271.38
2023-04-17T03:52:32.760Z,102333.09
2023-04-17T03:54:59.891Z,102354.94
2023-04-17T03:57:27.088Z,102331.28
2023-04-17T03:59:53.774Z,102352.81
2023-04-17T04:02:20.860Z,102325.56
2023-04-17T04:04:50.461Z,102363.47
2023-04-17T04:07:17.441Z,102369.69
2023-04-17T04:09:44.890Z,102316.97
2023-04-17T04:12:11.902Z,102372.41
2023-04-17T04:14:42.169Z,102366.72
2023-04-17T04:17:09.875Z,102364.91
2023-04-17T04:19:38.310Z,102344.72
2023-04-17T04:22:06.910Z,102339.28
2023-04-17T04:24:41.283Z,102338.31
2023-04-17T04:27:09.353Z,102367.16
2023-04-17T04:29:37.737Z,102376.84
2023-04-17T04:32:09.626Z,102385.56
2023-04-17T04:34:42.122Z,102367.44
2023-04-17T04:37:08.741Z,102391.66
2023-04-17T04:39:40.075Z,102334.44
2023-04-17T04:42:09.986Z,102389.78
2023-04-17T04:44:55.671Z,102374.16
2023-04-17T04:47:25.748Z,102384.97
2023-04-17T04:49:53.745Z,102375.69
2023-04-17T04:52:21.840Z,102379.72
2023-04-17T04:54:50.277Z,102373.19
2023-04-17T04:57:16.816Z,102382.81
2023-04-17T04:59:45.989Z,102385.75
2023-04-17T05:02:30.077Z,102348.66
2023-04-17T05:04:57.480Z,102400.56
2023-04-17T05:07:24.336Z,102380.38
2023-04-17T05:09:51.070Z,102377.50
2023-04-17T05:12:21.205Z,102371.31
2023-04-17T05:14:50.115Z,102358.69
2023-04-17T05:17:19.287Z,102287.19
2023-04-17T05:19:46.032Z,102385.59
2023-04-17T05:22:14.100Z,102394.66
2023-04-17T05:24:56.672Z,102418.44
2023-04-17T05:27:23.399Z,102296.25
2023-04-17T05:29:50.055Z,102383.34
2023-04-17T05:32:17.342Z,102397.84
2023-04-17T05:34:56.776Z,102404.28
2023-04-17T05:37:26.488Z,102327.25
2023-04-17T05:39:54.792Z,102396.31
2023-04-17T05:42:21.452Z,102408.28
2023-04-17T05:44:47.995Z,102395.94
2023-04-17T05:47:14.661Z,102427.03
2023-04-17T05:49:43.852Z,102393.75
2023-04-17T05:52:10.894Z,102391.09
2023-04-17T05:54:42.007Z,102390.00
2023-04-17T05:57:08.969Z,102411.09
2023-04-17T05:59:36.430Z,102419.13
2023-04-17T06:02:04.255Z,102411.44
2023-04-17T06:04:33.463Z,102400.75
2023-04-17T06:07:02.563Z,102426.19
2023-04-17T06:09:29.240Z,102376.69
2023-04-17T06:11:56.352Z,102338.13
2023-04-17T06:14:23.014Z,102412.50
2023-04-17T06:16:50.630Z,102395.47
2023-04-17T06:19:18.290Z,102423.97
2023-04-17T06:21:45.291Z,102409.53
2023-04-17T06:24:11.944Z,102442.00
2023-04-17T06:26:44.015Z,102421.31
2023-04-17T06:29:10.861Z,102424.03
2023-04-17T06:31:37.780Z,102432.88
2023-04-17T06:34:04.884Z,102432.75
2023-04-17T06:36:38.366Z,102429.13
2023-04-17T06:39:05.038Z,102392.09
2023-04-17T06:41:32.491Z,102433.84
2023-04-17T06:44:00.597Z,102429.59
2023-04-17T06:46:42.926Z,102459.47
2023-04-17T06:49:09.662Z,102448.72
2023-04-17T06:51:36.457Z,102451.69
2023-04-17T06:54:03.064Z,102444.75
2023-04-17T06:56:29.628Z,102422.53
2023-04-17T06:58:57.891Z,102437.03
2023-04-17T07:01:24.578Z,102432.19
2023-04-17T07:03:51.405Z,102448.00
2023-04-17T07:06:19.384Z,102441.09
2023-04-17T07:08:46.041Z,102411.41
2023-04-17T07:11:12.648Z,102452.31
2023-04-17T07:13:39.237Z,102445.97
2023-04-17T07:16:06.379Z,102394.44
2023-04-17T07:18:33.374Z,102392.38
2023-04-17T07:21:00.149Z,102491.09
2023-04-17T07:23:26.743Z,102449.31
2023-04-17T07:25:53.405Z,102473.94
2023-04-17T07:28:20.211Z,102480.22
2023-04-17T07:30:46.798Z,102498.00
2023-04-17T07:33:13.515Z,102500.97
2023-04-17T07:35:40.215Z,102486.03
2023-04-17T07:38:06.909Z,102468.63
2023-04-17T07:40:36.101Z,102376.09
2023-04-17T07:43:02.742Z,102483.19
2023-04-17T07:45:29.438Z,102473.22
2023-04-17T07:47:56.163Z,102465.69
2023-04-17T07:50:22.783Z,102491.81
2023-04-17T07:52:50.573Z,102503.44
2023-04-17T07:55:17.302Z,102498.41
2023-04-17T07:57:46.484Z,102489.06
2023-04-17T08:00:16.729Z,102479.91
2023-04-17T08:02:43.584Z,102477.97
2023-04-17T08:05:10.877Z,102479.69
2023-04-17T08:07:37.788Z,102421.59
2023-04-17T08:10:05.344Z,102506.97
2023-04-17T08:12:32.824Z,102488.75
2023-04-17T08:14:59.652Z,102479.78
2023-04-17T08:17:29.926Z,102488.84
2023-04-17T08:20:02.067Z,102487.59
2023-04-17T08:22:29.039Z,102487.41
2023-04-17T08:24:59.615Z,102441.78
2023-04-17T08:27:26.483Z,102446.81
2023-04-17T08:29:56.497Z,102506.44
2023-04-17T08:32:23.355Z,102483.59
2023-04-17T08:34:49.976Z,102498.47
2023-04-17T08:37:16.643Z,102484.03
2023-04-17T08:39:43.701Z,102440.22
2023-04-17T08:42:15.372Z,102481.34
2023-04-17T08:44:44.557Z,102492.41
2023-04-17T08:47:12.792Z,102494.25
2023-04-17T08:49:43.286Z,102494.69
2023-04-17T08:52:10.824Z,102478.06
2023-04-17T08:54:38.352Z,102503.09
2023-04-17T08:57:06.096Z,102501.03
2023-04-17T08:59:32.951Z,102504.56
2023-04-17T09:02:07.577Z,102529.31
2023-04-17T09:04:38.521Z,102531.53
2023-04-17T09:07:11.088Z,102480.94
2023-04-17T09:09:51.850Z,102507.81
2023-04-17T09:12:20.389Z,102489.88
2023-04-17T09:14:47.288Z,102490.94
2023-04-17T09:17:19.454Z,102445.66
2023-04-17T09:20:11.736Z,102511.25
2023-04-17T09:22:40.419Z,102435.22
2023-04-17T09:25:23.151Z,102510.78
2023-04-17T09:27:49.793Z,102514.78
2023-04-17T09:30:16.520Z,102515.56
2023-04-17T09:32:43.359Z,102432.69
2023-04-17T09:35:10.032Z,102523.50
2023-04-17T09:37:51.421Z,102508.16
2023-04-17T09:40:23.682Z,102502.38
2023-04-17T09:43:02.157Z,102431.44
2023-04-17T09:45:35.493Z,102501.78
2023-04-17T09:48:13.106Z,102439.28
2023-04-17T09:50:40.232Z,102513.22
2023-04-17T09:53:07.977Z,102452.31
2023-04-17T09:55:36.960Z,102498.44
2023-04-17T09:58:06.098Z,102518.13
2023-04-17T10:00:32.831Z,102521.56
2023-04-17T10:02:59.844Z,102491.47
2023-04-17T10:05:29.153Z,102513.97
2023-04-17T10:07:56.520Z,102508.28
2023-04-17T10:10:26.249Z,102522.84
2023-04-17T10:12:57.250Z,102499.53
2023-04-17T10:15:25.554Z,102418.50
2023-04-17T10:17:53.470Z,102510.47
2023-04-17T10:20:28.787Z,102511.63
2023-04-17T10:22:56.333Z,102487.06
2023-04-17T10:25:27.439Z,102506.88
2023-04-17T10:27:55.217Z,102500.66
2023-04-17T10:30:28.674Z,102511.34
2023-04-17T10:33:19.785Z,102501.56
2023-04-17T10:35:49.078Z,102504.56
2023-04-17T10:38:16.296Z,102487.31
2023-04-17T10:40:43.828Z,102500.09
2023-04-17T10:43:11.245Z,102510.94
2023-04-17T10:46:09.499Z,102490.16
2023-04-17T10:48:46.714Z,102482.25
2023-04-17T10:51:28.884Z,102500.34
2023-04-17T10:53:58.490Z,102498.53
2023-04-17T10:56:27.029Z,102494.19
2023-04-17T10:59:00.101Z,102422.03
2023-04-17T11:01:31.972Z,102428.59
2023-04-17T11:04:01.802Z,102500.00
2023-04-17T11:06:31.569Z,102464.13
2023-04-17T11:09:00.415Z,102480.19
2023-04-17T11:11:43.014Z,102492.72
2023-04-17T11:14:14.621Z,102468.63
2023-04-17T11:16:44.157Z,102463.41
2023-04-17T11:19:17.008Z,102481.53
2023-04-17T11:21:45.312Z,102422.22
2023-04-17T11:24:12.067Z,102468.88
2023-04-17T11:26:45.661Z,102437.16
2023-04-17T11:29:22.861Z,102454.97
2023-04-17T11:31:51.974Z,102418.84
2023-04-17T11:34:19.274Z,102393.22
2023-04-17T11:37:04.478Z,102443.09
2023-04-17T11:39:33.804Z,102439.44
2023-04-17T11:42:02.532Z,102427.34
2023-04-17T11:44:29.746Z,102445.22
2023-04-17T11:46:58.661Z,102290.97
2023-04-17T11:49:26.451Z,102450.94
2023-04-17T11:51:53.943Z,102423.13
2023-04-17T11:54:25.523Z,102440.91
2023-04-17T11:57:12.558Z,102456.69
2023-04-17T11:59:42.074Z,102400.06
2023-04-17T12:02:09.383Z,102462.66
2023-04-17T12:04:37.776Z,102384.31
2023-04-17T12:07:06.061Z,102452.97
2023-04-17T12:09:34.015Z,102439.81
2023-04-17T12:12:03.749Z,102464.91
2023-04-17T12:14:31.434Z,102457.47
2023-04-17T12:16:59.340Z,102370.31
2023-04-17T12:19:29.124Z,102424.56
2023-04-17T12:21:56.562Z,102440.84
2023-04-17T12:24:24.884Z,102433.97
2023-04-17T12:26:52.418Z,102434.94
2023-04-17T12:29:26.505Z,102423.34
2023-04-17T12:31:59.523Z,102439.03
2023-04-17T12:34:27.803Z,102335.22
2023-04-17T12:36:54.736Z,102421.84
2023-04-17T12:39:21.425Z,102434.25
2023-04-17T12:41:48.113Z,102436.41
2023-04-17T12:44:15.019Z,102441.41
2023-04-17T12:46:42.038Z,102413.69
2023-04-17T12:49:09.041Z,102427.63
2023-04-17T12:51:37.995Z,102402.88
2023-04-17T12:54:05.056Z,102443.16
2023-04-17T12:56:32.061Z,102458.47
2023-04-17T12:59:01.306Z,102425.66
2023-04-17T13:01:29.794Z,102418.47
2023-04-17T13:03:56.959Z,102423.22
2023-04-17T13:06:23.869Z,102418.59
2023-04-17T13:08:50.428Z,102437.44
2023-04-17T13:11:16.969Z,102436.22
2023-04-17T13:13:43.558Z,102459.97
2023-04-17T13:16:10.562Z,102408.78
2023-04-17T13:18:37.549Z,102390.09
2023-04-17T13:21:04.311Z,102424.00
2023-04-17T13:23:31.242Z,102423.72
2023-04-17T13:25:57.873Z,102440.28
2023-04-17T13:28:24.423Z,102378.91
2023-04-17T13:30:51.033Z,102442.09
2023-04-17T13:33:17.662Z,102435.84
2023-04-17T13:35:44.312Z,102413.94
2023-04-17T13:38:10.931Z,102412.13
2023-04-17T13:40:38.526Z,102415.56
2023-04-17T13:43:06.605Z,102422.88
2023-04-17T13:45:33.266Z,102423.69
2023-04-17T13:48:00.342Z,102419.19
2023-04-17T13:50:27.500Z,102417.50
2023-04-17T13:52:54.091Z,102415.66
2023-04-17T13:55:20.723Z,102397.84
2023-04-17T13:57:48.375Z,102406.44
2023-04-17T14:00:15.494Z,102383.38
2023-04-17T14:02:43.064Z,102417.31
2023-04-17T14:05:09.998Z,102398.53
2023-04-17T14:07:37.650Z,102406.72
2023-04-17T14:10:04.706Z,102412.75
2023-04-17T14:12:31.512Z,102393.84
2023-04-17T14:14:58.329Z,102406.97
2023-04-17T14:17:25.175Z,102374.59
2023-04-17T14:19:52.503Z,102376.50
2023-04-17T14:22:20.057Z,102398.44
2023-04-17T14:24:46.644Z,102377.78
2023-04-17T14:27:13.269Z,102378.75
2023-04-17T14:29:39.917Z,102378.84
2023-04-17T14:32:06.591Z,102408.50
2023-04-17T14:34:33.277Z,102392.84
2023-04-17T14:37:00.052Z,102362.53
2023-04-17T14:39:27.573Z,102325.47
2023-04-17T14:41:55.040Z,102377.72
2023-04-17T14:44:21.697Z,102374.22
2023-04-17T14:46:48.731Z,102364.38
2023-04-17T14:49:15.754Z,102386.72
2023-04-17T14:51:42.363Z,102375.84
2023-04-17T14:54:09.015Z,102359.56
2023-04-17T14:56:35.635Z,102360.81
2023-04-17T14:59:03.127Z,102373.59
2023-04-17T15:01:29.801Z,102354.28
2023-04-17T15:03:57.212Z,102371.81
2023-04-17T15:06:24.917Z,102359.63
2023-04-17T15:08:51.505Z,102342.22
2023-04-17T15:11:18.106Z,102342.69
2023-04-17T15:13:44.690Z,102330.31
2023-04-17T15:16:11.387Z,102359.59
2023-04-17T15:18:39.321Z,102365.03
2023-04-17T15:21:06.328Z,102291.28
2023-04-17T15:23:34.527Z,102355.41
2023-04-17T15:26:01.397Z,102351.41
2023-04-17T15:28:28.341Z,102350.63
2023-04-17T15:30:56.805Z,102354.25
2023-04-17T15:33:23.521Z,102327.47
2023-04-17T15:35:58.470Z,102287.84
2023-04-17T15:38:26.217Z,102336.22
2023-04-17T15:40:53.551Z,102276.97
2023-04-17T15:43:20.870Z,102317.50
2023-04-17T15:45:51.626Z,102282.81
2023-04-17T15:48:18.215Z,102317.84
2023-04-17T15:50:44.909Z,102335.81
2023-04-17T15:53:13.179Z,102308.56
2023-04-17T15:55:41.071Z,102323.72
2023-04-17T15:58:07.830Z,102243.13
2023-04-17T16:00:34.473Z,102331.53
2023-04-17T16:03:01.402Z,102297.84
2023-04-17T16:05:30.402Z,102336.75
2023-04-17T16:07:57.261Z,102320.13
2023-04-17T16:10:24.103Z,102299.88
2023-04-17T16:12:50.894Z,102286.88
2023-04-17T16:15:17.937Z,102267.94
2023-04-17T16:17:45.739Z,102303.19
2023-04-17T16:20:12.683Z,102301.94
2023-04-17T16:22:39.339Z,102299.69
2023-04-17T16:25:06.661Z,102250.16
2023-04-17T16:27:33.649Z,102322.25
2023-04-17T16:30:00.312Z,102285.34
2023-04-17T16:32:27.341Z,102245.72
2023-04-17T16:34:54.312Z,102318.00
2023-04-17T16:37:21.034Z,102294.56
2023-04-17T16:39:47.749Z,102305.34
2023-04-17T16:42:14.659Z,102284.78
2023-04-17T16:44:41.228Z,102284.78
2023-04-17T16:47:13.247Z,102303.19
2023-04-17T16:49:41.144Z,102330.50
2023-04-17T16:52:07.809Z,102303.47
2023-04-17T16:54:34.812Z,102307.75
2023-04-17T16:57:01.472Z,102317.38
2023-04-17T16:59:28.204Z,102335.16
2023-04-17T17:01:54.827Z,102327.69
2023-04-17T17:04:21.522Z,102316.84
2023-04-17T17:06:48.165Z,102297.09
2023-04-17T17:09:15.018Z,102342.88
2023-04-17T17:11:41.868Z,102303.91
2023-04-17T17:14:08.584Z,102326.19
2023-04-17T17:16:35.227Z,102319.78
2023-04-17T17:19:02.620Z,102331.50
2023-04-17T17:21:29.473Z,102260.59
2023-04-17T17:23:56.052Z,102331.81
2023-04-17T17:26:22.670Z,102347.31
2023-04-17T17:28:51.314Z,102334.56
2023-04-17T17:31:18.352Z,102338.41
2023-04-17T17:33:45.158Z,102334.91
2023-04-17T17:36:12.129Z,102337.41
2023-04-17T17:38:38.929Z,102302.16
2023-04-17T17:41:05.731Z,102265.44
2023-04-17T17:43:32.344Z,102311.25
2023-04-17T17:45:59.017Z,102311.09
2023-04-17T17:48:25.769Z,102312.59
2023-04-17T17:50:57.369Z,102321.38
2023-04-17T17:53:26.229Z,102244.63
2023-04-17T17:55:57.219Z,102335.66
2023-04-17T17:58:24.466Z,102270.72
2023-04-17T18:00:52.122Z,102312.75
2023-04-17T18:03:19.228Z,102307.78
2023-04-17T18:05:46.837Z,102342.47
2023-04-17T18:08:14.119Z,102269.84
2023-04-17T18:10:40.844Z,102324.31
2023-04-17T18:13:07.389Z,102230.06
2023-04-17T18:15:35.533Z,102285.31
2023-04-17T18:18:02.153Z,102341.06
2023-04-17T18:20:28.789Z,102353.16
2023-04-17T18:22:55.731Z,102360.03
2023-04-17T18:25:22.360Z,102334.44
2023-04-17T18:27:48.944Z,102337.69
2023-04-17T18:30:15.744Z,102338.16
2023-04-17T18:32:42.470Z,102367.63
2023-04-17T18:35:09.414Z,102344.97
2023-04-17T18:37:36.112Z,102363.63
2023-04-17T18:40:03.131Z,102356.38
2023-04-17T18:42:29.810Z,102347.25
2023-04-17T18:44:56.367Z,102312.50
2023-04-17T18:47:23.087Z,102366.38
2023-04-17T18:49:52.343Z,102348.59
2023-04-17T18:52:19.192Z,102212.50
2023-04-17T18:54:45.910Z,102352.50
2023-04-17T18:57:12.611Z,102372.56
2023-04-17T18:59:42.001Z,102350.94
2023-04-17T19:02:09.776Z,102340.22
2023-04-17T19:04:36.575Z,102246.38
2023-04-17T19:07:03.192Z,102346.56
2023-04-17T19:09:29.916Z,102332.88
2023-04-17T19:11:58.503Z,102334.50
2023-04-17T19:14:25.240Z,102366.44
2023-04-17T19:16:52.033Z,102370.59
2023-04-17T19:19:19.737Z,102381.22
2023-04-17T19:21:46.391Z,102357.47
2023-04-17T19:24:13.038Z,102378.81
2023-04-17T19:26:39.696Z,102365.03
2023-04-17T19:29:06.248Z,102352.75
2023-04-17T19:31:33.243Z,102349.00
2023-04-17T19:34:00.394Z,102350.22
2023-04-17T19:36:28.118Z,102339.97
2023-04-17T19:38:58.850Z,102366.81
2023-04-17T19:41:26.209Z,102291.59
2023-04-17T19:43:54.115Z,102388.03
2023-04-17T19:46:21.996Z,102293.03
2023-04-17T19:48:49.560Z,102384.22
2023-04-17T19:51:16.724Z,102370.31
2023-04-17T19:53:44.206Z,102358.69
2023-04-17T19:56:10.898Z,102242.06
2023-04-17T19:58:38.398Z,102287.22
2023-04-17T20:01:05.387Z,102270.91
2023-04-17T20:03:33.079Z,102375.56
2023-04-17T20:06:00.380Z,102362.75
2023-04-17T20:08:27.124Z,102390.53
2023-04-17T20:10:53.924Z,102291.94
2023-04-17T20:13:21.302Z,102398.69
2023-04-17T20:15:47.867Z,102388.63
2023-04-17T20:18:14.478Z,102365.16
2023-04-17T20:20:41.110Z,102374.31
2023-04-17T20:23:07.891Z,102378.94
2023-04-17T20:25:34.549Z,102403.16
2023-04-17T20:28:02.796Z,102384.75
2023-04-17T20:30:29.543Z,102393.63
2023-04-17T20:32:56.766Z,102319.38
2023-04-17T20:35:26.304Z,102374.38
2023-04-17T20:37:53.056Z,102382.41
2023-04-17T20:40:20.054Z,102322.59
2023-04-17T20:42:47.692Z,102300.97
2023-04-17T20:45:14.663Z,102382.09
2023-04-17T20:50:14.752Z,102293.78
2023-04-17T20:52:41.374Z,102358.75
2023-04-17T20:55:08.424Z,102359.38
2023-04-17T20:57:35.575Z,102379.72
2023-04-17T21:00:02.224Z,102303.94
2023-04-17T21:02:30.177Z,102375.75
2023-04-17T21:04:58.429Z,102386.63
2023-04-17T21:07:25.495Z,102359.38
2023-04-17T21:09:52.164Z,102375.66
2023-04-17T21:12:19.001Z,102354.91
2023-04-17T21:14:45.827Z,102395.34
2023-04-17T21:17:12.530Z,102391.72
2023-04-17T21:19:40.237Z,102402.38
2023-04-17T21:22:06.945Z,102371.47
2023-04-17T21:24:33.611Z,102359.16
2023-04-17T21:27:01.320Z,102399.59
2023-04-17T21:29:28.836Z,102310.06
2023-04-17T21:31:56.308Z,102387.22
2023-04-17T21:34:23.991Z,102361.63
2023-04-17T21:36:53.085Z,102372.28
2023-04-17T21:39:20.478Z,102386.97
2023-04-17T21:41:47.137Z,102388.34
2023-04-17T21:44:13.906Z,102382.50
2023-04-17T21:46:43.195Z,102378.81
2023-04-17T21:49:09.761Z,102368.19
2023-04-17T21:51:36.370Z,102384.25
2023-04-17T21:54:03.304Z,102368.69
2023-04-17T21:56:29.920Z,102351.53
2023-04-17T21:58:56.574Z,102387.81
2023-04-17T22:01:23.280Z,102371.69
2023-04-17T22:03:49.977Z,102382.91
2023-04-17T22:06:16.645Z,102380.53
2023-04-17T22:08:43.217Z,102401.22
2023-04-17T22:11:09.930Z,102383.88
2023-04-17T22:13:36.606Z,102389.59
2023-04-17T22:16:03.639Z,102335.22
2023-04-17T22:18:30.329Z,102403.44
2023-04-17T22:20:56.980Z,102419.13
2023-04-17T22:23:23.697Z,102389.09
2023-04-17T22:25:50.381Z,102371.34
2023-04-17T22:28:17.034Z,102325.16
2023-04-17T22:30:43.839Z,102404.59
2023-04-17T22:33:10.431Z,102380.75
2023-04-17T22:35:37.139Z,102412.44
2023-04-17T22:38:03.802Z,102373.50
2023-04-17T22:40:30.493Z,102406.09
2023-04-17T22:42:57.142Z,102384.06
2023-04-17T22:45:23.784Z,102393.72
2023-04-17T22:47:50.443Z,102413.53
2023-04-17T22:50:17.395Z,102380.72
2023-04-17T22:52:44.023Z,102392.22
2023-04-17T22:55:11.149Z,102417.44
2023-04-17T22:57:37.768Z,102387.28
2023-04-17T23:00:07.890Z,102413.09
2023-04-17T23:02:36.001Z,102401.06
2023-04-17T23:05:03.170Z,102419.66
2023-04-17T23:07:29.971Z,102423.41
2023-04-17T23:09:56.556Z,102340.06
2023-04-17T23:12:23.169Z,102411.50
2023-04-17T23:14:49.778Z,102424.94
2023-04-17T23:17:16.439Z,102400.03
2023-04-17T23:19:43.055Z,102388.75
2023-04-17T23:22:09.767Z,102435.47
2023-04-17T23:24:36.596Z,102368.44
2023-04-17T23:27:03.640Z,102435.91
2023-04-17T23:29:30.300Z,102391.38
2023-04-17T23:31:56.841Z,102396.69
2023-04-17T23:34:23.513Z,102406.25
2023-04-17T23:36:50.116Z,102427.28
2023-04-17T23:39:16.766Z,102406.03
2023-04-17T23:41:43.455Z,102407.50
2023-04-17T23:44:10.029Z,102393.69
2023-04-17T23:46:36.868Z,102407.72
2023-04-17T23:49:03.796Z,102378.34
2023-04-17T23:51:31.511Z,102398.50
2023-04-17T23:53:59.890Z,102434.75
2023-04-17T23:56:29.512Z,102417.47
2023-04-17T23:58:56.727Z,102399.19
